Portada
METAR-TAF:

METAR-TAF

Aeroports :

Türkmenbaşy, Turkmenistan

latitud: 40-03-48N, longitud: 053-00-26E, altitud: 86 m

Observació

L'informe es va fer fa 29 minuts, a les 07:00 UTC
Vent 10 kt del Sud-Est
Temperatura 40°C
Humitat 8%
Pressió 1011 hPa
Visibilitat 10 km o més
Escasses núvols a una alçada de 2600 ft

METAR: UTAK 250700Z 13010KT 9999 FEW026 40/M01 Q1011 NOSIG

Hora: 12:29 (07:29 UTC)

Pronòstic

L'informe es va fer fa 2 hores i 59 minuts, a les 04:30 UTC
Pronòstic vàlid del 25 a les 06 UTC al 26 a les 06 UTC
Vent 18 kt del Est
Visibilitat 10 km o més
sense núvols per sota de 1500 mi sense presència de cumulonimbus.
Temporalment
l' 25 a les 06 UTC al 25 a les 10 UTC
Vent 18 kt del Sud/Sud-Est amb ràfegues de 28 kt
Visibilitat: 3000 m
torb baixa de pols
Temporalment
l' 25 a les 10 UTC al 25 a les 13 UTC
Vent 18 kt del Sud-Oest amb ràfegues de 28 kt

TAF: UTAK 250430Z 2506/2606 10018KT CAVOK 530009 TEMPO 2506/2510 16018G28KT 3000 DRDU TEMPO 2510/2513 22018G28KT

Observacions i pronòstics meteorològics de més de 4000 aeroports (METAR i TAF).

Les estacions disponibles són els punts grocs i vermells al mapa.

Posi el ratolí al punt desitjat per veure el nom de l'estació.

Feu clic per veure les observacions i els pronòstics meteorològics.

Per canviar el mapa: feu clic els botons verds amb una creu de color negre per apropar; al botó verd amb un guió per allunyar la imatge; o en les fletxes verdes per a mapes adjacents.


METAR-TAF: